Time;durP1;ratioP1;P1;durP2;ratioP2;P2;SDS_P1;SDS_P2;PMS_P1;PMS_P2;Temp;Humidity;BMP_temperature;BMP_pressure;BME280_temperature;BME280_humidity;BME280_pressure;Samples;Min_cycle;Max_cycle;Signal;HPM_P1;HPM_P2
2022/02/04 00:22:20;;;;;;;9.25;5.43;;;;;;;;;;5095938;28;20077;-34
2022/02/04 00:24:37;;;;;;;10.48;5.13;;;;;;;;;;5095531;28;20027;-34
2022/02/04 00:27:09;;;;;;;10.52;5.30;;;;;;;;;;5095674;28;20028;-34
2022/02/04 00:29:46;;;;;;;10.95;5.47;;;;;;;;;;5095306;28;20025;-35
2022/02/04 00:32:12;;;;;;;12.25;5.28;;;;;;;;;;5094497;28;20027;-35
2022/02/04 00:34:45;;;;;;;7.65;4.30;;;;;;;;;;5095349;28;20450;-35
2022/02/04 00:37:29;;;;;;;11.93;4.68;;;;;;;;;;5095523;28;20056;-35
2022/02/04 00:40:06;;;;;;;10.07;4.75;;;;;;;;;;5095237;28;20020;-35
2022/02/04 00:42:32;;;;;;;11.65;4.70;;;;;;;;;;5094270;28;20478;-35
2022/02/04 00:45:11;;;;;;;12.98;5.45;;;;;;;;;;5095388;28;20027;-35
2022/02/04 00:47:43;;;;;;;14.23;4.88;;;;;;;;;;5095375;28;20023;-34
2022/02/04 00:50:24;;;;;;;16.40;5.60;;;;;;;;;;5095206;28;20031;-35
2022/02/04 00:53:03;;;;;;;10.95;5.38;;;;;;;;;;5093818;28;20668;-34
2022/02/04 00:55:42;;;;;;;17.20;5.47;;;;;;;;;;5095220;28;20355;-35
2022/02/04 01:13:13;;;;;;;14.15;5.00;;;;;;;;;;5094865;28;20080;-34
2022/02/04 01:26:01;;;;;;;12.30;5.82;;;;;;;;;;5094642;28;20157;-34
2022/02/04 01:28:27;;;;;;;17.05;6.32;;;;;;;;;;5093301;28;20024;-35
2022/02/04 01:30:54;;;;;;;14.13;6.65;;;;;;;;;;5093240;28;20386;-34
2022/02/04 01:33:19;;;;;;;17.67;6.07;;;;;;;;;;5093101;28;20020;-34
2022/02/04 01:35:45;;;;;;;14.65;5.82;;;;;;;;;;5094283;28;20024;-34
2022/02/04 01:38:10;;;;;;;19.77;5.75;;;;;;;;;;5094024;28;20494;-34
2022/02/04 01:40:35;;;;;;;12.25;5.65;;;;;;;;;;5092823;28;20035;-35
2022/02/04 01:43:01;;;;;;;12.55;5.25;;;;;;;;;;5092988;28;20027;-34
2022/02/04 01:45:26;;;;;;;9.65;5.07;;;;;;;;;;5091577;28;20125;-34
2022/02/04 01:47:57;;;;;;;13.55;6.65;;;;;;;;;;5108837;28;20100;-34
2022/02/04 01:50:27;;;;;;;15.35;6.60;;;;;;;;;;5114517;28;20023;-34
2022/02/04 01:52:53;;;;;;;12.77;6.95;;;;;;;;;;5096056;28;20031;-34
2022/02/04 01:55:18;;;;;;;12.65;5.93;;;;;;;;;;5114086;28;20378;-34
2022/02/04 01:57:44;;;;;;;13.07;5.80;;;;;;;;;;5114332;28;20080;-34
2022/02/04 02:00:10;;;;;;;12.23;6.40;;;;;;;;;;5095875;28;20023;-34
2022/02/04 02:02:35;;;;;;;17.02;6.63;;;;;;;;;;5095970;28;20020;-34
2022/02/04 02:05:00;;;;;;;16.15;6.03;;;;;;;;;;5114629;28;20511;-34
2022/02/04 02:07:27;;;;;;;23.73;6.47;;;;;;;;;;5114061;28;20059;-34
2022/02/04 02:12:19;;;;;;;17.00;6.53;;;;;;;;;;5114174;28;20051;-34
2022/02/04 02:14:46;;;;;;;12.13;5.90;;;;;;;;;;5113189;28;20027;-34
2022/02/04 02:52:26;;;;;;;17.02;6.85;;;;;;;;;;5113194;28;20454;-35
2022/02/04 02:59:21;;;;;;;19.17;6.35;;;;;;;;;;5113334;28;20505;-34
2022/02/04 03:01:49;;;;;;;16.27;6.47;;;;;;;;;;5113190;28;20024;-34
2022/02/04 03:04:16;;;;;;;19.80;7.60;;;;;;;;;;5094873;28;20027;-35
2022/02/04 03:06:45;;;;;;;15.02;5.78;;;;;;;;;;5113664;28;20073;-34
2022/02/04 03:09:10;;;;;;;;;;;;;;;;;;5113792;28;20030;-35
2022/02/04 03:11:36;;;;;;;15.65;6.70;;;;;;;;;;5113248;28;19994;-35
2022/02/04 03:14:01;;;;;;;15.65;6.22;;;;;;;;;;5113243;28;20016;-34
2022/02/04 03:16:28;;;;;;;13.80;5.55;;;;;;;;;;5112634;28;20027;-35
2022/02/04 03:18:55;;;;;;;14.85;5.90;;;;;;;;;;5093965;28;20178;-34
2022/02/04 03:21:28;;;;;;;13.70;5.55;;;;;;;;;;5112823;28;20359;-34
2022/02/04 03:23:59;;;;;;;15.18;6.75;;;;;;;;;;5113278;28;20031;-35
2022/02/04 03:26:34;;;;;;;13.88;6.40;;;;;;;;;;5115244;28;20063;-35
2022/02/04 03:29:00;;;;;;;16.38;6.60;;;;;;;;;;5116474;28;20419;-35
2022/02/04 03:31:29;;;;;;;24.33;6.55;;;;;;;;;;5098525;28;20019;-34
2022/02/04 03:33:54;;;;;;;22.60;7.50;;;;;;;;;;5117137;28;20039;-35
2022/02/04 03:36:19;;;;;;;17.00;6.00;;;;;;;;;;5116920;28;20433;-34
2022/02/04 03:38:45;;;;;;;13.07;5.45;;;;;;;;;;5098675;28;20047;-35
2022/02/04 03:41:11;;;;;;;14.25;5.93;;;;;;;;;;5117014;28;20098;-34
2022/02/04 03:43:37;;;;;;;22.30;6.30;;;;;;;;;;5116868;28;20051;-34
2022/02/04 03:46:02;;;;;;;10.38;5.28;;;;;;;;;;5116617;28;20443;-34
2022/02/04 03:48:27;;;;;;;18.67;5.90;;;;;;;;;;5117053;28;20024;-35
2022/02/04 03:50:53;;;;;;;12.80;6.55;;;;;;;;;;5098650;28;20016;-34
2022/02/04 03:53:18;;;;;;;14.18;7.60;;;;;;;;;;5098505;28;20023;-35
2022/02/04 03:55:44;;;;;;;18.08;8.18;;;;;;;;;;5116600;28;20008;-34
2022/02/04 03:58:10;;;;;;;18.40;8.00;;;;;;;;;;5116563;28;20126;-34
2022/02/04 04:00:35;;;;;;;19.00;7.35;;;;;;;;;;5116487;28;20102;-35
2022/02/04 04:03:01;;;;;;;17.83;7.63;;;;;;;;;;5116431;28;20119;-35
2022/02/04 04:05:27;;;;;;;15.13;6.10;;;;;;;;;;5098407;28;20023;-34
2022/02/04 04:07:53;;;;;;;19.90;7.90;;;;;;;;;;5116575;28;20088;-34
2022/02/04 04:10:25;;;;;;;16.95;6.63;;;;;;;;;;5116436;28;20474;-34
2022/02/04 04:12:50;;;;;;;21.25;7.25;;;;;;;;;;5116095;28;20537;-35
2022/02/04 04:15:16;;;;;;;15.85;6.15;;;;;;;;;;5116153;28;20062;-35
2022/02/04 04:17:44;;;;;;;22.63;7.15;;;;;;;;;;5098160;28;20479;-34
2022/02/04 04:20:10;;;;;;;22.88;7.72;;;;;;;;;;5116374;28;20043;-34
2022/02/04 04:22:36;;;;;;;14.80;7.38;;;;;;;;;;5098036;28;20118;-34
2022/02/04 04:25:03;;;;;;;18.30;7.65;;;;;;;;;;5098025;28;20102;-35
2022/02/04 04:27:28;;;;;;;25.10;6.97;;;;;;;;;;5097788;28;20027;-34
2022/02/04 04:29:53;;;;;;;16.80;8.00;;;;;;;;;;5115685;28;20019;-35
2022/02/04 04:32:19;;;;;;;22.92;8.02;;;;;;;;;;5116188;28;20026;-34
2022/02/04 04:34:44;;;;;;;26.08;8.20;;;;;;;;;;5116132;28;20035;-34
2022/02/04 04:37:09;;;;;;;17.33;6.70;;;;;;;;;;5096292;28;20051;-34
2022/02/04 04:39:45;;;;;;;23.27;9.45;;;;;;;;;;5097596;28;20016;-35
2022/02/04 04:42:19;;;;;;;19.55;7.53;;;;;;;;;;5115762;28;20116;-34
2022/02/04 05:28:34;;;;;;;26.05;8.90;;;;;;;;;;5115170;28;20489;-35
2022/02/04 05:30:58;;;;;;;23.65;9.32;;;;;;;;;;5114377;28;20034;-34
2022/02/04 05:33:24;;;;;;;23.88;9.60;;;;;;;;;;5096630;28;20107;-35
2022/02/04 05:35:49;;;;;;;26.50;10.73;;;;;;;;;;5096446;28;20019;-35
2022/02/04 05:38:15;;;;;;;22.80;8.63;;;;;;;;;;5114754;28;20050;-35
2022/02/04 05:40:44;;;;;;;21.95;9.60;;;;;;;;;;5096357;28;20048;-34
2022/02/04 05:43:44;;;;;;;26.85;9.82;;;;;;;;;;5114386;28;20019;-35
2022/02/04 05:46:15;;;;;;;25.90;8.82;;;;;;;;;;5111131;28;20076;-34
2022/02/04 05:48:45;;;;;;;23.20;8.37;;;;;;;;;;5096080;28;20030;-35
2022/02/04 05:59:07;;;;;;;23.80;10.05;;;;;;;;;;5114305;28;20030;-34
2022/02/04 06:14:51;;;;;;;28.50;10.00;;;;;;;;;;5113201;28;20115;-34
2022/02/04 06:22:50;;;;;;;27.33;10.85;;;;;;;;;;5113946;28;20031;-35
2022/02/04 06:25:15;;;;;;;28.75;11.48;;;;;;;;;;5113842;28;20016;-35
2022/02/04 06:27:41;;;;;;;25.58;11.07;;;;;;;;;;5113892;28;20064;-34
2022/02/04 06:30:06;;;;;;;25.27;11.32;;;;;;;;;;5113569;28;20069;-34
2022/02/04 06:32:32;;;;;;;33.00;11.38;;;;;;;;;;5114099;28;20012;-34
2022/02/04 06:34:58;;;;;;;35.03;15.40;;;;;;;;;;5113412;28;20067;-34
2022/02/04 06:37:23;;;;;;;62.88;22.02;;;;;;;;;;5111884;28;20108;-35
2022/02/04 06:39:48;;;;;;;87.13;28.33;;;;;;;;;;5113282;28;20427;-35
2022/02/04 06:42:19;;;;;;;47.40;18.50;;;;;;;;;;5112419;28;20042;-35
2022/02/04 06:44:44;;;;;;;39.45;17.55;;;;;;;;;;5112346;28;20023;-34
2022/02/04 06:47:10;;;;;;;32.72;12.77;;;;;;;;;;5094389;28;20035;-36
2022/02/04 06:49:35;;;;;;;28.73;13.45;;;;;;;;;;5112824;28;20470;-35
2022/02/04 06:52:02;;;;;;;36.20;14.10;;;;;;;;;;5094324;28;20012;-35
2022/02/04 06:54:27;;;;;;;37.90;15.13;;;;;;;;;;5113018;28;20039;-34
2022/02/04 06:56:54;;;;;;;32.15;13.70;;;;;;;;;;5112750;28;20036;-34
2022/02/04 06:59:20;;;;;;;31.40;14.45;;;;;;;;;;5113384;28;20374;-34
2022/02/04 07:01:45;;;;;;;37.80;14.25;;;;;;;;;;5111840;28;20031;-35
2022/02/04 07:04:12;;;;;;;37.03;15.10;;;;;;;;;;5101592;28;20554;-35
2022/02/04 07:06:38;;;;;;;29.00;14.10;;;;;;;;;;5086671;28;20024;-37
2022/02/04 07:19:47;;;;;;;34.65;13.75;;;;;;;;;;5111637;28;20034;-36
2022/02/04 07:22:16;;;;;;;33.30;14.13;;;;;;;;;;5088128;28;20021;-37
2022/02/04 07:24:42;;;;;;;34.13;13.57;;;;;;;;;;5092696;28;20122;-36
2022/02/04 07:27:07;;;;;;;35.13;14.50;;;;;;;;;;5092342;28;20158;-37
2022/02/04 07:29:33;;;;;;;29.40;13.15;;;;;;;;;;5104218;28;20015;-40
2022/02/04 07:32:03;;;;;;;31.75;12.90;;;;;;;;;;5109371;28;20024;-36
2022/02/04 07:42:33;;;;;;;27.38;14.10;;;;;;;;;;5110967;28;20069;-37
2022/02/04 07:44:59;;;;;;;31.70;13.68;;;;;;;;;;5093339;28;20028;-36
2022/02/04 07:47:24;;;;;;;30.70;13.55;;;;;;;;;;5092970;28;20505;-37
2022/02/04 07:49:52;;;;;;;30.38;14.18;;;;;;;;;;5108455;28;20027;-36
2022/02/04 07:52:18;;;;;;;39.80;15.68;;;;;;;;;;5090015;28;20444;-36
2022/02/04 07:54:43;;;;;;;33.92;14.90;;;;;;;;;;5091345;28;20052;-38
2022/02/04 07:57:08;;;;;;;33.05;14.52;;;;;;;;;;5093516;28;20062;-37
2022/02/04 07:59:34;;;;;;;40.65;15.98;;;;;;;;;;5094065;28;20477;-36
2022/02/04 08:01:59;;;;;;;25.95;13.23;;;;;;;;;;5112249;28;20443;-36
2022/02/04 08:04:29;;;;;;;44.80;13.85;;;;;;;;;;5091104;28;20015;-36
2022/02/04 08:07:04;;;;;;;29.48;13.27;;;;;;;;;;5098919;28;20020;-36
2022/02/04 08:33:19;;;;;;;22.10;9.10;;;;;;;;;;5113295;28;20076;-37
2022/02/04 08:38:35;;;;;;;27.75;12.63;;;;;;;;;;5111370;28;20166;-35
2022/02/04 08:54:12;;;;;;;26.50;10.10;;;;;;;;;;5111558;28;20055;-36
2022/02/04 08:59:18;;;;;;;25.38;10.63;;;;;;;;;;5113449;28;20466;-35
2022/02/04 09:01:55;;;;;;;21.90;10.90;;;;;;;;;;5095021;28;20462;-35
2022/02/04 09:04:30;;;;;;;23.27;9.27;;;;;;;;;;5084814;28;20061;-36
2022/02/04 09:07:02;;;;;;;22.77;10.38;;;;;;;;;;5087191;28;20027;-34
2022/02/04 09:09:42;;;;;;;21.83;9.10;;;;;;;;;;5084669;28;20047;-34
2022/02/04 09:12:22;;;;;;;25.05;10.77;;;;;;;;;;5114442;28;20027;-36
2022/02/04 09:20:28;;;;;;;20.48;9.30;;;;;;;;;;5113052;28;20115;-36
2022/02/04 09:22:53;;;;;;;21.75;8.80;;;;;;;;;;5110441;28;20019;-34
2022/02/04 09:25:19;;;;;;;19.58;8.63;;;;;;;;;;5105492;28;20020;-35
2022/02/04 09:27:44;;;;;;;17.55;7.18;;;;;;;;;;5107429;28;20024;-34
2022/02/04 09:30:11;;;;;;;18.25;7.57;;;;;;;;;;5085299;28;20043;-34
2022/02/04 09:32:36;;;;;;;13.77;6.88;;;;;;;;;;5113114;28;20045;-36
2022/02/04 09:35:06;;;;;;;11.88;5.45;;;;;;;;;;5113009;28;20520;-36
2022/02/04 09:37:31;;;;;;;;;;;;;;;;;;5107770;28;20071;-36
2022/02/04 09:39:56;;;;;;;14.83;5.97;;;;;;;;;;5113901;28;20349;-36
2022/02/04 09:42:22;;;;;;;13.88;5.47;;;;;;;;;;5113727;28;20279;-35
2022/02/04 09:44:48;;;;;;;11.93;4.90;;;;;;;;;;5114292;28;20015;-35
2022/02/04 09:47:17;;;;;;;12.30;5.32;;;;;;;;;;5089910;27;20123;-37
2022/02/04 09:49:46;;;;;;;9.32;5.28;;;;;;;;;;5112746;28;20020;-36
2022/02/04 10:14:06;;;;;;;17.25;7.43;;;;;;;;;;5096629;28;20034;-36
2022/02/04 10:19:12;;;;;;;17.23;7.22;;;;;;;;;;5110408;27;20504;-36
2022/02/04 10:21:38;;;;;;;16.90;6.00;;;;;;;;;;5092139;28;20026;-36
2022/02/04 10:24:04;;;;;;;13.80;6.00;;;;;;;;;;5110417;28;20024;-38
2022/02/04 10:26:29;;;;;;;15.15;5.90;;;;;;;;;;5111893;28;20039;-36
2022/02/04 10:28:55;;;;;;;12.63;4.95;;;;;;;;;;5095337;28;20035;-35
2022/02/04 10:31:21;;;;;;;15.88;5.35;;;;;;;;;;5113143;28;20023;-36
2022/02/04 10:33:58;;;;;;;17.13;6.05;;;;;;;;;;5113110;28;20103;-35
2022/02/04 10:36:36;;;;;;;11.57;5.32;;;;;;;;;;5112486;28;20112;-35
2022/02/04 10:39:22;;;;;;;18.50;5.80;;;;;;;;;;5095171;28;20020;-36
2022/02/04 10:42:02;;;;;;;17.95;5.85;;;;;;;;;;5113319;28;20332;-36
2022/02/04 10:44:31;;;;;;;12.77;5.70;;;;;;;;;;5095157;28;20020;-35
2022/02/04 10:47:03;;;;;;;13.27;6.00;;;;;;;;;;5113599;28;20491;-35
2022/02/04 10:49:54;;;;;;;13.35;5.20;;;;;;;;;;5113420;28;20382;-36
2022/02/04 10:52:36;;;;;;;13.95;4.72;;;;;;;;;;5094939;28;20458;-38
2022/02/04 11:00:56;;;;;;;10.93;4.80;;;;;;;;;;5113104;28;20107;-36
2022/02/04 11:03:23;;;;;;;12.80;4.85;;;;;;;;;;5111817;28;20359;-36
2022/02/04 11:05:58;;;;;;;11.40;4.70;;;;;;;;;;5112578;28;20024;-36
2022/02/04 11:08:55;;;;;;;11.07;4.70;;;;;;;;;;5112525;28;20057;-35
2022/02/04 11:36:11;;;;;;;9.93;4.95;;;;;;;;;;5110826;28;20108;-37
2022/02/04 11:52:41;;;;;;;10.13;4.30;;;;;;;;;;5115552;28;20031;-35
2022/02/04 11:55:10;;;;;;;12.10;4.43;;;;;;;;;;5094744;28;20088;-35
2022/02/04 11:57:49;;;;;;;10.00;3.53;;;;;;;;;;5112187;28;20050;-35
2022/02/04 12:00:20;;;;;;;13.65;4.80;;;;;;;;;;5096329;28;20020;-36
2022/02/04 12:02:47;;;;;;;10.25;3.75;;;;;;;;;;5114990;28;20121;-36
2022/02/04 12:05:18;;;;;;;14.88;4.65;;;;;;;;;;5095769;28;20047;-35
2022/02/04 12:07:48;;;;;;;12.63;5.43;;;;;;;;;;5096309;27;20046;-40
2022/02/04 12:10:13;;;;;;;8.48;3.95;;;;;;;;;;5113876;28;20038;-35
2022/02/04 12:13:00;;;;;;;12.43;4.45;;;;;;;;;;5113405;28;20374;-35
2022/02/04 12:17:57;;;;;;;10.75;4.50;;;;;;;;;;5108376;28;20075;-35
2022/02/04 12:20:41;;;;;;;9.80;4.97;;;;;;;;;;5114847;27;20106;-35
2022/02/04 12:23:06;;;;;;;8.13;4.53;;;;;;;;;;5114897;28;20386;-36
2022/02/04 12:25:50;;;;;;;12.23;4.80;;;;;;;;;;5096884;28;20023;-36
2022/02/04 12:28:34;;;;;;;45.00;21.73;;;;;;;;;;5094816;28;20035;-36
2022/02/04 12:31:05;;;;;;;24.90;12.25;;;;;;;;;;5094592;28;20019;-36
2022/02/04 12:33:31;;;;;;;16.42;7.65;;;;;;;;;;5096037;28;20026;-36
2022/02/04 12:35:57;;;;;;;20.98;9.07;;;;;;;;;;5106659;28;20023;-37
2022/02/04 12:38:22;;;;;;;14.55;6.75;;;;;;;;;;5087579;28;20044;-35
2022/02/04 12:40:56;;;;;;;10.55;3.90;;;;;;;;;;5110033;28;20122;-34
2022/02/04 12:43:25;;;;;;;8.93;3.88;;;;;;;;;;5089876;28;20016;-39
2022/02/04 12:45:51;;;;;;;15.43;4.38;;;;;;;;;;5112556;28;20118;-35
2022/02/04 12:48:18;;;;;;;9.90;4.38;;;;;;;;;;5114974;28;20161;-34
2022/02/04 12:50:50;;;;;;;15.52;4.90;;;;;;;;;;5091496;28;20024;-36
2022/02/04 12:53:26;;;;;;;14.25;5.40;;;;;;;;;;5095698;28;20038;-36
2022/02/04 12:56:35;;;;;;;17.55;5.05;;;;;;;;;;5106431;28;20020;-37
2022/02/04 13:09:50;;;;;;;10.95;4.70;;;;;;;;;;5114456;28;20076;-36
2022/02/04 13:12:18;;;;;;;14.32;6.20;;;;;;;;;;5114326;28;20399;-37
2022/02/04 13:14:44;;;;;;;13.15;5.93;;;;;;;;;;5113799;27;20366;-36
2022/02/04 13:17:09;;;;;;;9.80;5.43;;;;;;;;;;5112025;28;20027;-37
2022/02/04 13:19:35;;;;;;;12.13;6.13;;;;;;;;;;5093033;28;20019;-42
2022/02/04 13:22:00;;;;;;;16.10;5.90;;;;;;;;;;5111506;28;20370;-36
2022/02/04 13:24:25;;;;;;;11.65;5.47;;;;;;;;;;5113058;28;20030;-36
2022/02/04 13:26:50;;;;;;;15.93;6.03;;;;;;;;;;5088801;28;20012;-38
2022/02/04 13:29:23;;;;;;;17.33;5.97;;;;;;;;;;5110360;28;20404;-37
2022/02/04 13:31:48;;;;;;;11.30;4.53;;;;;;;;;;5085361;28;20106;-36
2022/02/04 13:34:13;;;;;;;14.38;5.25;;;;;;;;;;5111180;28;20102;-36
2022/02/04 13:36:44;;;;;;;13.45;5.13;;;;;;;;;;5108334;28;20952;-42
2022/02/04 13:42:10;;;;;;;17.88;5.63;;;;;;;;;;5104307;28;20068;-39
2022/02/04 13:44:54;;;;;;;10.93;5.18;;;;;;;;;;5096188;28;20027;-36
2022/02/04 13:58:06;;;;;;;14.48;4.90;;;;;;;;;;5103260;28;20066;-34
2022/02/04 14:00:47;;;;;;;12.38;5.05;;;;;;;;;;5111867;28;20019;-34
2022/02/04 14:03:20;;;;;;;12.75;4.45;;;;;;;;;;5092734;28;20038;-35
2022/02/04 14:05:52;;;;;;;10.18;4.43;;;;;;;;;;5085295;28;20063;-36
2022/02/04 14:08:27;;;;;;;14.48;4.50;;;;;;;;;;5089852;28;20026;-36
2022/02/04 14:10:59;;;;;;;10.45;4.40;;;;;;;;;;5094805;28;20027;-35
2022/02/04 14:13:25;;;;;;;9.13;4.00;;;;;;;;;;5110839;28;20057;-37
2022/02/04 14:15:54;;;;;;;14.45;4.18;;;;;;;;;;5113433;28;20047;-35
2022/02/04 14:18:19;;;;;;;10.50;4.28;;;;;;;;;;5108166;28;20484;-36
2022/02/04 14:20:45;;;;;;;16.77;5.45;;;;;;;;;;5108511;28;20080;-34
2022/02/04 14:23:11;;;;;;;11.93;4.72;;;;;;;;;;5105127;28;20019;-35
2022/02/04 14:26:12;;;;;;;10.35;5.38;;;;;;;;;;5108734;28;20027;-34
2022/02/04 14:28:53;;;;;;;17.00;5.70;;;;;;;;;;5090387;28;20096;-36
2022/02/04 14:31:38;;;;;;;15.63;7.75;;;;;;;;;;5109794;28;20104;-34
2022/02/04 14:53:18;;;;;;;21.60;6.05;;;;;;;;;;5093066;28;20123;-35
2022/02/04 15:01:28;;;;;;;14.23;5.43;;;;;;;;;;5101869;28;20042;-36
2022/02/04 15:04:14;;;;;;;11.48;5.93;;;;;;;;;;5112515;28;20020;-35
2022/02/04 15:06:41;;;;;;;20.55;6.18;;;;;;;;;;5094164;28;20069;-35
2022/02/04 15:09:09;;;;;;;18.40;6.32;;;;;;;;;;5093647;28;20020;-37
2022/02/04 15:11:36;;;;;;;17.55;6.50;;;;;;;;;;5092717;28;20023;-38
2022/02/04 15:14:03;;;;;;;19.38;7.18;;;;;;;;;;5112404;28;20022;-35
2022/02/04 15:16:29;;;;;;;17.17;7.88;;;;;;;;;;5113431;28;20030;-35
2022/02/04 15:18:54;;;;;;;18.77;8.10;;;;;;;;;;5094943;28;20027;-35
2022/02/04 15:21:21;;;;;;;19.33;8.30;;;;;;;;;;5095897;28;20381;-35
2022/02/04 15:23:49;;;;;;;21.15;8.10;;;;;;;;;;5117170;28;20036;-35
2022/02/04 15:26:15;;;;;;;14.88;7.53;;;;;;;;;;5117076;28;20415;-36
2022/02/04 15:31:55;;;;;;;16.27;7.72;;;;;;;;;;5117240;28;20024;-35
2022/02/04 15:33:59;;;;;;;20.60;7.35;;;;;;;;;;5111153;28;20088;-35
2022/02/04 15:36:29;;;;;;;17.25;7.57;;;;;;;;;;5098558;28;20030;-35
2022/02/04 15:38:55;;;;;;;20.33;8.60;;;;;;;;;;5110831;28;20044;-35
2022/02/04 15:41:21;;;;;;;28.65;11.10;;;;;;;;;;5096947;28;20016;-35
2022/02/04 15:43:51;;;;;;;20.10;9.43;;;;;;;;;;5095252;28;20024;-35
2022/02/04 15:57:00;;;;;;;29.40;11.63;;;;;;;;;;5074592;28;20024;-35
2022/02/04 16:04:48;;;;;;;25.85;10.52;;;;;;;;;;5096419;28;20024;-35
2022/02/04 16:07:15;;;;;;;28.95;9.98;;;;;;;;;;5095994;28;20485;-34
2022/02/04 16:09:42;;;;;;;38.33;11.63;;;;;;;;;;5096061;28;20027;-35
2022/02/04 16:12:18;;;;;;;21.35;9.07;;;;;;;;;;5096315;28;20107;-34
2022/02/04 16:14:52;;;;;;;33.67;12.30;;;;;;;;;;5095765;28;20468;-35
2022/02/04 16:17:30;;;;;;;36.95;10.50;;;;;;;;;;5095841;28;20459;-35
2022/02/04 16:30:38;;;;;;;35.58;12.23;;;;;;;;;;5095514;28;20034;-34
2022/02/04 16:33:03;;;;;;;23.27;12.05;;;;;;;;;;5094394;28;20479;-35
2022/02/04 16:35:28;;;;;;;34.08;11.48;;;;;;;;;;5094249;28;20032;-35
2022/02/04 16:38:02;;;;;;;38.47;14.70;;;;;;;;;;5094006;28;20455;-34
2022/02/04 16:40:28;;;;;;;53.92;17.15;;;;;;;;;;5095682;28;20047;-35
2022/02/04 16:42:53;;;;;;;45.15;14.77;;;;;;;;;;5095443;28;20481;-35
2022/02/04 16:45:19;;;;;;;47.67;17.92;;;;;;;;;;5095647;28;20023;-34
2022/02/04 16:47:44;;;;;;;56.13;18.90;;;;;;;;;;5093937;28;20143;-34
2022/02/04 16:50:10;;;;;;;47.03;17.77;;;;;;;;;;5093835;28;20024;-35
2022/02/04 16:52:35;;;;;;;57.10;18.35;;;;;;;;;;5095401;28;20052;-34
2022/02/04 16:55:01;;;;;;;45.13;16.00;;;;;;;;;;5095260;28;20020;-35
2022/02/04 16:57:28;;;;;;;57.58;18.08;;;;;;;;;;5095226;28;20020;-34
2022/02/04 16:59:56;;;;;;;47.60;16.95;;;;;;;;;;5095108;28;20024;-35
2022/02/04 17:02:21;;;;;;;59.47;19.63;;;;;;;;;;5095099;28;20024;-35
2022/02/04 17:04:47;;;;;;;58.90;18.77;;;;;;;;;;5094919;28;20513;-35
2022/02/04 17:07:19;;;;;;;58.25;20.30;;;;;;;;;;5095190;28;20543;-35
2022/02/04 17:09:48;;;;;;;44.35;17.00;;;;;;;;;;5093705;28;20035;-34
2022/02/04 17:12:17;;;;;;;57.53;19.52;;;;;;;;;;5094917;28;20095;-34
2022/02/04 17:14:42;;;;;;;59.78;18.83;;;;;;;;;;5094666;28;20382;-34
2022/02/04 17:17:07;;;;;;;54.65;21.38;;;;;;;;;;5094610;28;20027;-35
2022/02/04 17:19:42;;;;;;;53.17;21.08;;;;;;;;;;5094505;28;20028;-35
2022/02/04 17:22:08;;;;;;;62.00;22.70;;;;;;;;;;5094790;28;20386;-34
2022/02/04 17:24:33;;;;;;;57.25;20.85;;;;;;;;;;5094727;28;20121;-35
2022/02/04 17:26:59;;;;;;;45.35;17.95;;;;;;;;;;5094681;28;20462;-34
2022/02/04 17:29:28;;;;;;;40.17;17.20;;;;;;;;;;5094467;28;20111;-35
2022/02/04 17:31:53;;;;;;;43.50;17.98;;;;;;;;;;5092927;28;20028;-35
2022/02/04 17:34:19;;;;;;;48.20;17.10;;;;;;;;;;5094489;28;20367;-35
2022/02/04 17:36:44;;;;;;;50.63;18.65;;;;;;;;;;5094395;28;20047;-35
2022/02/04 17:39:17;;;;;;;50.45;19.33;;;;;;;;;;5092941;28;20471;-34
2022/02/04 17:41:48;;;;;;;49.42;18.42;;;;;;;;;;5093039;28;20383;-35
2022/02/04 17:44:14;;;;;;;45.33;18.90;;;;;;;;;;5092579;28;20030;-35
2022/02/04 17:46:40;;;;;;;41.75;19.05;;;;;;;;;;5093007;28;20352;-35
2022/02/04 17:49:13;;;;;;;61.85;21.50;;;;;;;;;;5094571;28;20042;-34
2022/02/04 17:54:16;;;;;;;54.67;22.25;;;;;;;;;;5094111;28;20028;-35
2022/02/04 17:57:01;;;;;;;59.50;24.15;;;;;;;;;;5092668;28;20080;-34
2022/02/04 18:07:13;;;;;;;58.80;24.35;;;;;;;;;;5093829;28;20073;-35
2022/02/04 18:09:41;;;;;;;59.53;23.60;;;;;;;;;;5093594;28;20042;-34
2022/02/04 18:12:07;;;;;;;56.47;22.75;;;;;;;;;;5093849;28;20034;-34
2022/02/04 18:14:32;;;;;;;61.10;28.85;;;;;;;;;;5093694;28;20016;-34
2022/02/04 18:16:58;;;;;;;66.35;26.80;;;;;;;;;;5093534;28;20027;-34
2022/02/04 18:19:23;;;;;;;81.35;28.70;;;;;;;;;;5092257;28;20016;-34
2022/02/04 18:21:49;;;;;;;73.82;29.90;;;;;;;;;;5093484;28;20023;-34
2022/02/04 18:24:14;;;;;;;73.85;28.90;;;;;;;;;;5092128;28;20482;-34
2022/02/04 18:26:39;;;;;;;62.95;27.83;;;;;;;;;;5093662;28;20023;-35
2022/02/04 18:29:05;;;;;;;69.95;27.20;;;;;;;;;;5093563;28;20378;-35
2022/02/04 18:31:32;;;;;;;63.15;27.15;;;;;;;;;;5093304;28;20027;-34
2022/02/04 18:33:57;;;;;;;94.55;39.50;;;;;;;;;;5093364;28;20020;-34
2022/02/04 18:36:23;;;;;;;89.72;39.53;;;;;;;;;;5092976;28;20046;-35
2022/02/04 18:38:56;;;;;;;95.28;40.67;;;;;;;;;;5092894;28;20039;-34
2022/02/04 18:44:03;;;;;;;98.37;39.83;;;;;;;;;;5093315;28;20024;-35
2022/02/04 18:49:12;;;;;;;97.95;38.80;;;;;;;;;;5093083;28;20020;-34
2022/02/04 18:52:34;;;;;;;89.60;38.85;;;;;;;;;;5092290;28;20366;-34
2022/02/04 18:59:20;;;;;;;96.15;39.40;;;;;;;;;;5092503;28;20032;-35
2022/02/04 19:01:47;;;;;;;88.10;37.83;;;;;;;;;;5090759;28;20124;-36
2022/02/04 19:04:17;;;;;;;97.55;39.88;;;;;;;;;;5092655;28;20069;-35
2022/02/04 19:06:48;;;;;;;95.85;38.47;;;;;;;;;;5091822;28;20028;-35
2022/02/04 19:09:13;;;;;;;100.45;41.10;;;;;;;;;;5090948;28;20020;-35
2022/02/04 19:11:44;;;;;;;101.93;39.53;;;;;;;;;;5091032;28;20032;-36
2022/02/04 19:14:14;;;;;;;92.68;39.35;;;;;;;;;;5092194;28;20016;-35
2022/02/04 19:16:50;;;;;;;101.95;39.67;;;;;;;;;;5091432;28;20459;-35
2022/02/04 19:24:40;;;;;;;124.70;48.78;;;;;;;;;;5092556;28;20425;-36
2022/02/04 19:27:05;;;;;;;117.15;45.58;;;;;;;;;;5091223;28;20016;-34
2022/02/04 19:29:30;;;;;;;108.70;42.95;;;;;;;;;;5092476;28;20042;-35
2022/02/04 19:32:01;;;;;;;107.10;42.20;;;;;;;;;;5092674;28;20016;-34
2022/02/04 19:34:26;;;;;;;98.43;41.65;;;;;;;;;;5092681;28;20092;-35
2022/02/04 19:36:53;;;;;;;114.45;43.42;;;;;;;;;;5092366;28;20463;-35
2022/02/04 19:39:18;;;;;;;169.70;51.30;;;;;;;;;;5092225;28;20481;-35
2022/02/04 19:41:50;;;;;;;121.63;46.92;;;;;;;;;;5092502;28;20051;-35
2022/02/04 19:44:15;;;;;;;123.72;46.60;;;;;;;;;;5091339;28;20413;-35
2022/02/04 19:46:41;;;;;;;113.45;44.15;;;;;;;;;;5092571;28;20016;-35
2022/02/04 19:49:11;;;;;;;112.50;47.65;;;;;;;;;;5092628;28;20020;-35
2022/02/04 19:51:51;;;;;;;123.32;46.08;;;;;;;;;;5092445;28;20496;-34
2022/02/04 20:27:04;;;;;;;110.03;50.35;;;;;;;;;;5095984;28;20031;-34
2022/02/04 20:29:29;;;;;;;259.23;97.97;;;;;;;;;;5095765;28;20020;-35
2022/02/04 20:31:54;;;;;;;99.38;45.20;;;;;;;;;;5095363;28;20104;-35
2022/02/04 20:34:20;;;;;;;101.40;45.58;;;;;;;;;;5095829;28;20103;-35
2022/02/04 20:36:45;;;;;;;203.02;65.72;;;;;;;;;;5095404;28;20070;-35
2022/02/04 20:39:14;;;;;;;216.70;74.53;;;;;;;;;;5095522;28;20028;-34
2022/02/04 20:41:40;;;;;;;138.15;56.28;;;;;;;;;;5095601;28;20122;-34
2022/02/04 20:44:05;;;;;;;127.07;48.45;;;;;;;;;;5094003;28;20503;-37
2022/02/04 20:46:31;;;;;;;129.30;50.55;;;;;;;;;;5095558;28;20115;-34
2022/02/04 20:48:56;;;;;;;148.05;55.28;;;;;;;;;;5095560;28;20462;-35
2022/02/04 20:51:22;;;;;;;145.40;58.15;;;;;;;;;;5095357;28;20029;-34
2022/02/04 20:53:47;;;;;;;158.70;59.90;;;;;;;;;;5094014;28;20020;-34
2022/02/04 20:56:12;;;;;;;155.93;56.63;;;;;;;;;;5095340;28;20024;-34
2022/02/04 20:58:38;;;;;;;170.77;63.47;;;;;;;;;;5093696;28;20596;-37
2022/02/04 21:01:10;;;;;;;199.90;71.78;;;;;;;;;;5093626;28;20036;-35
2022/02/04 21:03:37;;;;;;;182.32;64.78;;;;;;;;;;5093940;28;20032;-34
2022/02/04 21:06:12;;;;;;;124.30;52.08;;;;;;;;;;5095143;28;20027;-35
2022/02/04 21:14:28;;;;;;;99.65;41.42;;;;;;;;;;5078379;28;20038;-34
2022/02/04 21:16:54;;;;;;;90.22;43.03;;;;;;;;;;5093748;28;20096;-35
2022/02/04 21:19:19;;;;;;;82.93;37.92;;;;;;;;;;5094192;28;20478;-35
2022/02/04 21:21:44;;;;;;;80.00;37.03;;;;;;;;;;5093443;28;20016;-35
2022/02/04 21:24:10;;;;;;;86.32;37.35;;;;;;;;;;5093204;28;20471;-35
2022/02/04 21:26:35;;;;;;;82.25;35.47;;;;;;;;;;5094756;28;20015;-34
2022/02/04 21:29:01;;;;;;;83.90;37.50;;;;;;;;;;5094840;28;20020;-34
2022/02/04 21:31:26;;;;;;;103.40;42.42;;;;;;;;;;5094459;28;20125;-34
2022/02/04 21:39:04;;;;;;;106.72;41.25;;;;;;;;;;5094442;28;20043;-34
2022/02/04 21:41:29;;;;;;;98.40;39.58;;;;;;;;;;5094527;28;20028;-35
2022/02/04 21:43:54;;;;;;;102.63;40.08;;;;;;;;;;5094406;28;20478;-34
2022/02/04 21:46:24;;;;;;;96.00;38.60;;;;;;;;;;5094250;28;20020;-34
2022/02/04 21:48:52;;;;;;;100.45;38.58;;;;;;;;;;5094269;28;20386;-35
2022/02/04 21:51:17;;;;;;;103.85;41.05;;;;;;;;;;5093926;28;20035;-34
2022/02/04 21:53:43;;;;;;;97.10;40.67;;;;;;;;;;5094440;28;20386;-34
2022/02/04 21:56:09;;;;;;;83.88;38.70;;;;;;;;;;5094310;28;20066;-35
2022/02/04 21:58:37;;;;;;;95.90;41.10;;;;;;;;;;5092817;28;20467;-35